Flugplatz Wershofen/Eifel

Für EDRV sind keine METAR/TAF Berichte vorhanden.
Es werden die Flugwettermeldungen vom Flugplatz Buchel Airport in 36 km Entfernung angezeigt.

Bericht für ETSB

vom 25.10. um 15:20 UTC

Wind 6 kt aus 240°

Sichtweite 10 km oder mehr

gering bewölkt in 2200 ft

aufgelockert bewölkt in 7000 ft

Temperatur 12.0°C

Taupunkt 6.0°C

Luftfeuchtigkeit 67%

Luftdruck 1018 hPa

ETSB 251520Z 24006KT 9999 FEW022 SCT070 12/06 Q1018 BLU+

Prognose für ETSB

vom 25.10. um 13:19 UTC

Zwischen 14:00 UTC und 23:00 UTC

Wind 12 kt aus 220°

Sichtweite 10 km oder mehr

keine signifikanten Wettererscheinungen

aufgebrochene Bewölkung in 5000 ft

aufgebrochene Bewölkung in 20000 ft


Zwischen 16:00 UTC und 18:00 UTC zeitweise

Wind 10 kt aus 230°

Sichtweite 4000 m

schwacher Regen

schwacher Sprühregen

aufgebrochene Bewölkung in 700 ft

bedeckt in 1000 ft

TAF ETSB 251319Z 2514/2523 22012KT 9999 NSW BKN050 BKN200 TEMPO 2516/2518 23010KT 4000 -RADZ BKN007 OVC010 BY ETGL
Impressum